Time;durP1;ratioP1;P1;durP2;ratioP2;P2;SDS_P1;SDS_P2;PMS_P1;PMS_P2;Temp;Humidity;BMP_temperature;BMP_pressure;BME280_temperature;BME280_humidity;BME280_pressure;Samples;Min_cycle;Max_cycle;Signal;HPM_P1;HPM_P2
2022/04/04 00:00:22;;;;;;;7.13;5.60;;;8.50;99.90;;;;;;5048799;28;20110;-73
2022/04/04 00:02:48;;;;;;;8.80;5.65;;;8.60;99.90;;;;;;5050034;28;20028;-71
2022/04/04 00:05:13;;;;;;;6.28;5.68;;;8.50;99.90;;;;;;5043145;28;20091;-71
2022/04/04 00:07:39;;;;;;;7.78;6.88;;;8.50;99.90;;;;;;5045465;28;20029;-71
2022/04/04 00:10:06;;;;;;;9.75;6.22;;;8.50;99.90;;;;;;5044469;28;20074;-71
2022/04/04 00:12:31;;;;;;;10.20;5.75;;;8.50;99.90;;;;;;5041927;28;20113;-72
2022/04/04 00:14:58;;;;;;;8.00;7.20;;;8.40;99.90;;;;;;5047276;28;20103;-71
2022/04/04 00:17:24;;;;;;;8.02;7.05;;;8.40;99.90;;;;;;5050797;28;20017;-72
2022/04/04 00:19:49;;;;;;;9.25;6.22;;;8.40;99.90;;;;;;5045638;28;20025;-71
2022/04/04 00:22:15;;;;;;;7.22;5.75;;;8.30;99.90;;;;;;5047601;28;20040;-71
2022/04/04 00:24:41;;;;;;;6.88;5.93;;;8.30;99.90;;;;;;5046828;28;20033;-71
2022/04/04 00:27:07;;;;;;;6.95;5.78;;;8.30;99.90;;;;;;5044729;28;20049;-71
2022/04/04 00:29:32;;;;;;;10.85;6.00;;;8.30;99.90;;;;;;5047976;28;20123;-72
2022/04/04 00:31:58;;;;;;;7.10;6.22;;;8.30;99.90;;;;;;5048471;28;20021;-71
2022/04/04 00:34:24;;;;;;;12.85;5.70;;;8.30;99.90;;;;;;5039892;28;20033;-72
2022/04/04 00:36:50;;;;;;;9.48;6.45;;;8.30;99.90;;;;;;5043707;28;20029;-71
2022/04/04 00:39:19;;;;;;;6.68;5.63;;;8.30;99.90;;;;;;5046582;28;20108;-71
2022/04/04 00:41:48;;;;;;;7.45;5.93;;;8.20;99.90;;;;;;5045470;28;20544;-71
2022/04/04 00:44:14;;;;;;;7.00;6.30;;;8.20;99.90;;;;;;5047795;28;20024;-71
2022/04/04 00:46:42;;;;;;;7.95;5.40;;;8.20;99.90;;;;;;5046275;28;20022;-71
2022/04/04 00:49:08;;;;;;;16.85;5.43;;;8.20;99.90;;;;;;5048398;28;20033;-71
2022/04/04 00:51:35;;;;;;;8.40;5.85;;;8.20;99.90;;;;;;5047348;28;20076;-70
2022/04/04 00:54:02;;;;;;;7.95;5.95;;;8.20;99.90;;;;;;5051571;28;20364;-70
2022/04/04 00:56:31;;;;;;;8.48;6.20;;;8.30;99.90;;;;;;5042705;28;20049;-71
2022/04/04 00:58:57;;;;;;;16.98;10.43;;;8.30;99.90;;;;;;5038409;28;20399;-71
2022/04/04 01:01:23;;;;;;;6.47;5.20;;;8.40;99.90;;;;;;5050288;28;20025;-71
2022/04/04 01:03:49;;;;;;;9.63;6.00;;;8.40;99.90;;;;;;5051333;28;20021;-71
2022/04/04 01:06:14;;;;;;;10.02;6.55;;;8.40;99.90;;;;;;5051476;28;20024;-71
2022/04/04 01:08:40;;;;;;;14.73;6.50;;;8.40;99.90;;;;;;5052988;28;20491;-71
2022/04/04 01:11:06;;;;;;;9.35;5.35;;;8.40;99.90;;;;;;5045802;28;20032;-71
2022/04/04 01:13:32;;;;;;;9.98;6.53;;;8.30;99.90;;;;;;5038261;28;20467;-70
2022/04/04 01:15:57;;;;;;;9.13;5.82;;;8.30;99.90;;;;;;5048435;28;20025;-71
2022/04/04 01:18:23;;;;;;;5.95;4.20;;;8.30;99.90;;;;;;5041819;28;20040;-72
2022/04/04 01:20:50;;;;;;;7.22;6.53;;;8.30;99.90;;;;;;5046391;28;20036;-71
2022/04/04 01:23:23;;;;;;;7.38;4.88;;;8.30;99.90;;;;;;5043363;28;20096;-71
2022/04/04 01:25:49;;;;;;;7.40;6.20;;;8.30;99.90;;;;;;5044258;28;20019;-71
2022/04/04 01:28:15;;;;;;;8.25;5.60;;;8.30;99.90;;;;;;5039578;28;20044;-70
2022/04/04 01:30:41;;;;;;;6.97;6.10;;;8.30;99.90;;;;;;5043064;28;20649;-72
2022/04/04 01:33:07;;;;;;;6.03;5.35;;;8.40;99.90;;;;;;5042861;28;20033;-71
2022/04/04 01:35:33;;;;;;;11.13;5.05;;;8.30;99.90;;;;;;5040243;28;20061;-71
2022/04/04 01:38:00;;;;;;;6.50;5.75;;;8.30;99.90;;;;;;5050686;28;20151;-71
2022/04/04 01:40:25;;;;;;;7.85;5.05;;;8.30;99.90;;;;;;5044605;28;20537;-71
2022/04/04 01:42:53;;;;;;;5.90;5.25;;;8.30;99.90;;;;;;5045380;28;20029;-71
2022/04/04 01:46:23;;;;;;;6.30;5.22;;;8.20;99.90;;;;;;5043318;28;20415;-71
2022/04/04 01:48:05;;;;;;;8.05;6.22;;;8.20;99.90;;;;;;5037551;28;20017;-72
2022/04/04 01:50:31;;;;;;;10.25;6.55;;;8.20;99.90;;;;;;5045929;28;20053;-72
2022/04/04 01:55:45;;;;;;;9.70;6.35;;;8.20;99.90;;;;;;5044081;28;20521;-71
2022/04/04 01:58:11;;;;;;;6.80;6.15;;;8.20;99.90;;;;;;5041214;28;20038;-70
2022/04/04 02:00:38;;;;;;;10.18;8.68;;;8.20;99.90;;;;;;5042715;28;20043;-71
2022/04/04 02:03:07;;;;;;;9.88;5.78;;;8.20;99.90;;;;;;5044515;28;20025;-71
2022/04/04 02:05:32;;;;;;;7.15;6.38;;;8.20;99.90;;;;;;5043077;28;20036;-71
2022/04/04 02:07:58;;;;;;;8.32;5.97;;;8.10;99.90;;;;;;5043448;28;20067;-72
2022/04/04 02:10:24;;;;;;;12.35;6.03;;;8.10;99.90;;;;;;5042676;28;20076;-72
2022/04/04 02:12:50;;;;;;;6.97;5.82;;;8.00;99.90;;;;;;5043453;28;21448;-71
2022/04/04 02:15:15;;;;;;;6.38;5.53;;;8.00;99.90;;;;;;5039791;28;20032;-71
2022/04/04 02:17:41;;;;;;;9.68;6.07;;;7.90;99.90;;;;;;5040688;28;20025;-72
2022/04/04 02:20:08;;;;;;;7.03;4.63;;;7.90;99.90;;;;;;5047850;28;20074;-72
2022/04/04 02:22:34;;;;;;;7.65;4.70;;;7.90;99.90;;;;;;5040448;28;20017;-71
2022/04/04 02:25:00;;;;;;;11.27;6.68;;;7.80;99.90;;;;;;5048215;28;20032;-71
2022/04/04 02:27:27;;;;;;;8.07;5.40;;;7.80;99.90;;;;;;5041554;28;20029;-71
2022/04/04 02:29:52;;;;;;;8.23;5.55;;;7.80;99.90;;;;;;5044183;28;20483;-71
2022/04/04 02:32:19;;;;;;;10.10;6.00;;;7.80;99.90;;;;;;5043908;28;20029;-71
2022/04/04 02:34:45;;;;;;;9.50;6.07;;;7.80;99.90;;;;;;5045085;28;20545;-72
2022/04/04 02:37:12;;;;;;;14.70;6.07;;;7.80;99.90;;;;;;5044742;28;20113;-72
2022/04/04 02:39:38;;;;;;;9.52;4.95;;;7.80;99.90;;;;;;5039361;28;20039;-71
2022/04/04 02:42:04;;;;;;;8.18;5.50;;;7.80;99.90;;;;;;5040934;28;20541;-71
2022/04/04 02:44:30;;;;;;;7.07;5.70;;;7.80;99.90;;;;;;5041735;28;20029;-71
2022/04/04 02:46:56;;;;;;;6.60;6.00;;;7.80;99.90;;;;;;5043536;28;20079;-71
2022/04/04 02:49:23;;;;;;;9.80;5.22;;;7.80;99.90;;;;;;5038999;28;20494;-71
2022/04/04 02:51:49;;;;;;;7.00;5.68;;;7.80;99.90;;;;;;5038816;28;20036;-72
2022/04/04 02:54:15;;;;;;;11.90;5.47;;;7.80;99.90;;;;;;5045172;28;20021;-71
2022/04/04 02:56:41;;;;;;;9.48;5.90;;;7.80;99.90;;;;;;5041002;28;20110;-72
2022/04/04 02:59:08;;;;;;;6.60;5.22;;;7.80;99.90;;;;;;5043924;28;20043;-72
2022/04/04 03:01:35;;;;;;;7.10;5.88;;;7.90;99.90;;;;;;5042033;28;20032;-72
2022/04/04 03:04:02;;;;;;;7.28;5.78;;;7.80;99.90;;;;;;5040357;28;20031;-72
2022/04/04 03:06:28;;;;;;;6.65;5.57;;;7.80;99.90;;;;;;5042235;28;20128;-71
2022/04/04 03:08:54;;;;;;;6.03;5.43;;;7.90;99.90;;;;;;5041060;28;20064;-71
2022/04/04 03:11:20;;;;;;;6.25;4.82;;;7.90;99.90;;;;;;5036951;28;20025;-71
2022/04/04 03:13:47;;;;;;;6.63;6.03;;;7.80;99.90;;;;;;5037389;28;20265;-71
2022/04/04 03:16:13;;;;;;;9.82;5.70;;;7.80;99.90;;;;;;5040296;28;20025;-71
2022/04/04 03:18:40;;;;;;;8.18;5.15;;;7.80;99.90;;;;;;5038291;28;20521;-72
2022/04/04 03:21:06;;;;;;;5.05;4.55;;;7.80;99.90;;;;;;5043113;28;20037;-72
2022/04/04 03:23:33;;;;;;;5.90;5.40;;;7.70;99.90;;;;;;5035706;28;20146;-71
2022/04/04 03:26:00;;;;;;;8.23;5.78;;;7.80;99.90;;;;;;5038432;28;20029;-71
2022/04/04 03:28:31;;;;;;;7.25;6.20;;;7.80;99.90;;;;;;5035700;28;20104;-72
2022/04/04 03:30:57;;;;;;;6.97;5.78;;;7.80;99.90;;;;;;5039355;28;20428;-71
2022/04/04 03:33:24;;;;;;;7.60;5.30;;;7.80;99.90;;;;;;5044083;28;20471;-71
2022/04/04 03:35:50;;;;;;;7.10;5.20;;;7.80;99.90;;;;;;5039813;28;20029;-71
2022/04/04 03:38:16;;;;;;;6.85;5.72;;;7.70;99.90;;;;;;5038924;28;20029;-71
2022/04/04 03:40:43;;;;;;;7.00;5.13;;;7.70;99.90;;;;;;5034513;28;20037;-70
2022/04/04 03:43:08;;;;;;;9.38;6.63;;;7.70;99.90;;;;;;5041287;28;20051;-71
2022/04/04 03:45:35;;;;;;;8.57;5.88;;;7.60;99.90;;;;;;5041707;28;20523;-71
2022/04/04 03:48:01;;;;;;;5.32;4.82;;;7.60;99.90;;;;;;5040411;28;20021;-71
2022/04/04 03:50:28;;;;;;;11.80;6.78;;;7.60;99.90;;;;;;5040492;28;20021;-71
2022/04/04 03:52:55;;;;;;;7.00;5.28;;;7.60;99.90;;;;;;5037317;28;20021;-72
2022/04/04 03:55:38;;;;;;;8.82;5.88;;;7.50;99.90;;;;;;5046924;28;20056;-72
2022/04/04 03:58:05;;;;;;;7.68;5.82;;;7.50;99.90;;;;;;5047772;28;20021;-72
2022/04/04 04:00:31;;;;;;;8.43;5.63;;;7.50;99.90;;;;;;5048792;28;20613;-72
2022/04/04 04:02:57;;;;;;;8.90;5.57;;;7.60;99.90;;;;;;5047921;28;20074;-71
2022/04/04 04:05:23;;;;;;;7.15;5.57;;;7.60;99.90;;;;;;5053806;28;20017;-72
2022/04/04 04:07:49;;;;;;;7.38;5.47;;;7.60;99.90;;;;;;5048882;28;20021;-72
2022/04/04 04:10:15;;;;;;;7.75;6.38;;;7.60;99.90;;;;;;5044293;28;20028;-72
2022/04/04 04:12:42;;;;;;;8.02;6.32;;;7.60;99.90;;;;;;5045580;28;20021;-72
2022/04/04 04:15:10;;;;;;;6.82;5.43;;;7.50;99.90;;;;;;5041226;28;20049;-72
2022/04/04 04:17:36;;;;;;;5.78;5.18;;;7.60;99.90;;;;;;5047623;28;20066;-72
2022/04/04 04:22:52;;;;;;;9.05;6.55;;;7.40;99.90;;;;;;5051645;28;20040;-71
2022/04/04 04:25:19;;;;;;;6.88;4.97;;;7.40;99.90;;;;;;5049548;28;20021;-72
2022/04/04 04:27:46;;;;;;;7.80;5.85;;;7.30;99.90;;;;;;5049328;28;20075;-72
2022/04/04 04:30:13;;;;;;;9.85;6.28;;;7.20;99.90;;;;;;5044355;28;20032;-73
2022/04/04 04:32:45;;;;;;;8.57;5.95;;;7.20;99.90;;;;;;5043349;28;20029;-72
2022/04/04 04:35:11;;;;;;;8.65;5.28;;;7.20;99.90;;;;;;5043089;28;20021;-72
2022/04/04 04:37:39;;;;;;;8.40;5.85;;;7.20;99.90;;;;;;5046256;28;20059;-72
2022/04/04 04:40:06;;;;;;;10.35;5.63;;;7.20;99.90;;;;;;5049032;28;20074;-71
2022/04/04 04:42:33;;;;;;;8.27;6.45;;;7.10;99.90;;;;;;5044959;28;20025;-72
2022/04/04 04:44:59;;;;;;;8.40;6.75;;;7.10;99.90;;;;;;5045336;28;20021;-71
2022/04/04 04:47:25;;;;;;;6.50;5.55;;;7.10;99.90;;;;;;5039706;28;20030;-72
2022/04/04 04:49:51;;;;;;;7.20;5.32;;;7.20;99.90;;;;;;5050112;28;20087;-72
2022/04/04 04:52:17;;;;;;;10.27;5.85;;;7.10;99.90;;;;;;5045345;28;20021;-73
2022/04/04 04:54:43;;;;;;;7.68;5.75;;;7.20;99.90;;;;;;5050774;28;20037;-74
2022/04/04 04:57:08;;;;;;;7.47;5.85;;;7.20;99.90;;;;;;5041774;28;20017;-72
2022/04/04 04:59:34;;;;;;;7.97;4.93;;;7.20;99.90;;;;;;5041912;28;20128;-72
2022/04/04 05:02:00;;;;;;;10.85;6.13;;;7.20;99.90;;;;;;5044514;28;20390;-71
2022/04/04 05:04:26;;;;;;;9.18;5.97;;;7.10;99.90;;;;;;5044769;28;20112;-71
2022/04/04 05:06:52;;;;;;;12.00;6.43;;;7.20;99.90;;;;;;5046628;28;20036;-72
2022/04/04 05:09:18;;;;;;;7.63;5.28;;;7.10;99.90;;;;;;5041393;28;20860;-71
2022/04/04 05:11:45;;;;;;;5.38;4.85;;;7.10;99.90;;;;;;5046569;28;20033;-72
2022/04/04 05:14:17;;;;;;;9.15;5.78;;;7.10;99.90;;;;;;5047546;28;20104;-72
2022/04/04 05:16:47;;;;;;;10.20;5.97;;;7.20;99.90;;;;;;5045186;28;20029;-73
2022/04/04 05:19:19;;;;;;;8.60;6.28;;;7.20;99.90;;;;;;5045325;28;20396;-65
2022/04/04 05:21:46;;;;;;;8.98;6.07;;;7.20;99.90;;;;;;5040639;28;20029;-65
2022/04/04 05:24:12;;;;;;;9.90;5.15;;;7.20;99.90;;;;;;5045509;28;20016;-65
2022/04/04 05:26:38;;;;;;;7.72;5.78;;;7.30;99.90;;;;;;5043699;28;20029;-64
2022/04/04 05:29:04;;;;;;;7.63;6.15;;;7.30;99.90;;;;;;5044157;28;20459;-64
2022/04/04 05:31:31;;;;;;;12.48;7.00;;;7.30;99.90;;;;;;5047045;28;20032;-65
2022/04/04 05:33:58;;;;;;;8.15;6.22;;;7.30;99.90;;;;;;5046795;28;20047;-64
2022/04/04 05:36:27;;;;;;;7.75;5.80;;;7.30;99.90;;;;;;5048822;28;20025;-65
2022/04/04 05:38:53;;;;;;;5.90;5.40;;;7.40;99.90;;;;;;5050476;28;20041;-64
2022/04/04 05:41:19;;;;;;;6.75;6.13;;;7.40;99.90;;;;;;5042855;28;20498;-65
2022/04/04 05:43:46;;;;;;;7.10;6.13;;;7.40;99.90;;;;;;5047386;28;20033;-65
2022/04/04 05:46:16;;;;;;;8.85;6.50;;;7.50;99.90;;;;;;5044130;28;20443;-65
2022/04/04 05:48:42;;;;;;;8.60;5.90;;;7.60;99.90;;;;;;5045970;28;20562;-67
2022/04/04 05:51:09;;;;;;;7.20;6.30;;;7.60;99.90;;;;;;5042838;28;20135;-65
2022/04/04 05:53:35;;;;;;;11.48;5.85;;;7.60;99.90;;;;;;5035394;28;20535;-65
2022/04/04 05:56:01;;;;;;;8.45;6.38;;;7.60;99.90;;;;;;5038949;28;20035;-66
2022/04/04 05:58:27;;;;;;;8.90;5.45;;;7.60;99.90;;;;;;5041929;28;20562;-65
2022/04/04 06:00:53;;;;;;;7.32;5.70;;;7.70;99.90;;;;;;5041897;28;20483;-65
2022/04/04 06:03:19;;;;;;;10.15;6.32;;;7.80;99.90;;;;;;5043165;28;20032;-65
2022/04/04 06:05:49;;;;;;;6.78;5.70;;;7.90;99.90;;;;;;5041608;28;20029;-64
2022/04/04 06:08:16;;;;;;;12.57;5.82;;;8.00;99.90;;;;;;5041072;28;20029;-64
2022/04/04 06:10:45;;;;;;;11.52;7.38;;;8.00;99.90;;;;;;5042802;28;20505;-66
2022/04/04 06:13:15;;;;;;;10.20;6.90;;;8.00;99.90;;;;;;5042482;28;20040;-66
2022/04/04 06:15:42;;;;;;;9.68;7.25;;;8.00;99.90;;;;;;5046973;28;20446;-66
2022/04/04 06:18:08;;;;;;;8.25;5.65;;;8.00;99.90;;;;;;5046402;28;20028;-67
2022/04/04 06:20:34;;;;;;;6.88;5.63;;;8.10;99.90;;;;;;5040760;28;20034;-66
2022/04/04 06:23:00;;;;;;;8.50;6.05;;;8.10;99.90;;;;;;5040958;28;20017;-65
2022/04/04 06:25:26;;;;;;;7.47;5.43;;;8.20;99.90;;;;;;5043802;28;20036;-67
2022/04/04 06:27:53;;;;;;;7.35;5.85;;;8.20;99.90;;;;;;5045152;28;20045;-66
2022/04/04 06:30:20;;;;;;;6.60;5.72;;;8.30;99.90;;;;;;5043186;28;20032;-67
2022/04/04 06:32:46;;;;;;;6.28;5.68;;;8.30;99.90;;;;;;5043707;28;20494;-65
2022/04/04 06:35:13;;;;;;;7.57;5.20;;;8.50;99.90;;;;;;5045954;28;20025;-65
2022/04/04 06:37:39;;;;;;;9.35;6.03;;;8.50;99.90;;;;;;5041340;28;20025;-65
2022/04/04 06:40:05;;;;;;;8.40;6.78;;;8.60;99.90;;;;;;5044837;28;20367;-66
2022/04/04 06:42:36;;;;;;;11.73;6.00;;;8.60;99.90;;;;;;5042081;28;20032;-67
2022/04/04 06:45:03;;;;;;;7.68;5.78;;;8.70;99.90;;;;;;5042472;28;20079;-65
2022/04/04 06:47:30;;;;;;;10.95;5.53;;;8.70;99.90;;;;;;5043544;28;20543;-66
2022/04/04 06:49:55;;;;;;;9.27;6.30;;;8.70;99.90;;;;;;5042779;28;20674;-66
2022/04/04 06:52:21;;;;;;;12.95;5.93;;;8.70;99.90;;;;;;5042374;28;20032;-66
2022/04/04 06:54:48;;;;;;;8.63;6.18;;;8.70;99.90;;;;;;5041237;28;20148;-66
2022/04/04 06:57:16;;;;;;;8.55;6.10;;;8.80;99.90;;;;;;5044122;28;20033;-66
2022/04/04 06:59:42;;;;;;;14.57;9.90;;;8.90;99.90;;;;;;5041633;28;20037;-65
2022/04/04 07:02:09;;;;;;;11.00;6.60;;;9.00;99.90;;;;;;5041801;28;20507;-65
2022/04/04 07:04:37;;;;;;;15.18;5.57;;;9.10;99.90;;;;;;5041614;28;20636;-67
2022/04/04 07:07:06;;;;;;;7.50;5.53;;;9.10;99.90;;;;;;5043486;28;20021;-65
2022/04/04 07:09:32;;;;;;;7.60;5.32;;;9.00;99.90;;;;;;5040288;28;20024;-66
2022/04/04 07:11:58;;;;;;;7.57;5.93;;;9.10;99.90;;;;;;5041600;28;20471;-66
2022/04/04 07:14:27;;;;;;;10.27;5.70;;;9.20;99.90;;;;;;5044405;28;20053;-65
2022/04/04 07:16:54;;;;;;;10.40;6.10;;;9.20;99.90;;;;;;5043163;28;20722;-66
2022/04/04 07:19:22;;;;;;;7.07;5.95;;;9.30;99.90;;;;;;5039415;28;20104;-65
2022/04/04 07:21:51;;;;;;;7.00;5.78;;;9.40;99.90;;;;;;5046265;28;20051;-66
2022/04/04 07:24:20;;;;;;;7.43;4.97;;;9.50;99.90;;;;;;5043201;28;20025;-66
2022/04/04 07:26:48;;;;;;;11.40;5.60;;;9.50;99.90;;;;;;5038170;28;20043;-66
2022/04/04 07:29:15;;;;;;;6.65;5.07;;;9.60;99.90;;;;;;5040108;28;20475;-66
2022/04/04 07:31:42;;;;;;;6.93;5.15;;;9.60;99.90;;;;;;5046528;28;20402;-65
2022/04/04 07:34:10;;;;;;;9.73;6.32;;;9.70;99.90;;;;;;5042628;28;20029;-66
2022/04/04 07:36:36;;;;;;;11.82;5.35;;;9.80;99.90;;;;;;5038946;28;20067;-65
2022/04/04 07:39:03;;;;;;;7.22;5.53;;;9.90;99.90;;;;;;5046381;28;20029;-68
2022/04/04 07:41:29;;;;;;;8.18;5.78;;;10.10;99.90;;;;;;5049745;28;20024;-65
2022/04/04 07:43:55;;;;;;;4.90;4.45;;;10.20;99.90;;;;;;5044810;28;20539;-65
2022/04/04 07:46:21;;;;;;;7.85;4.80;;;10.40;99.90;;;;;;5047792;28;20090;-67
2022/04/04 07:48:47;;;;;;;6.15;5.03;;;10.50;99.90;;;;;;5048115;28;20530;-66
2022/04/04 07:51:13;;;;;;;6.72;5.53;;;10.70;99.90;;;;;;5045323;28;20414;-66
2022/04/04 07:53:39;;;;;;;6.75;4.95;;;10.80;99.90;;;;;;5042362;28;20567;-66
2022/04/04 07:56:05;;;;;;;8.77;4.85;;;10.90;99.90;;;;;;5048833;28;20044;-69
2022/04/04 07:58:31;;;;;;;5.13;4.55;;;11.10;99.90;;;;;;5041488;28;20399;-65
2022/04/04 08:00:57;;;;;;;7.70;4.55;;;11.10;99.90;;;;;;5044182;28;20124;-67
2022/04/04 08:03:23;;;;;;;4.95;4.30;;;11.10;99.90;;;;;;5049722;28;20515;-67
2022/04/04 08:05:49;;;;;;;6.47;4.15;;;11.00;99.90;;;;;;5054835;28;20303;-65
2022/04/04 08:08:16;;;;;;;6.65;4.43;;;11.20;99.90;;;;;;5054699;28;20167;-67
2022/04/04 08:10:42;;;;;;;9.90;4.82;;;11.30;99.90;;;;;;5046921;28;20511;-67
2022/04/04 08:13:09;;;;;;;7.47;4.50;;;11.40;99.90;;;;;;5046238;28;20121;-66
2022/04/04 08:15:35;;;;;;;5.82;3.88;;;11.40;99.90;;;;;;5049532;28;20021;-67
2022/04/04 08:18:02;;;;;;;4.50;3.85;;;11.40;99.90;;;;;;5043594;28;20031;-67
2022/04/04 08:20:28;;;;;;;7.32;4.47;;;11.40;99.90;;;;;;5044234;28;20040;-66
2022/04/04 08:22:54;;;;;;;6.68;4.75;;;11.30;99.90;;;;;;5044176;28;20025;-67
2022/04/04 08:25:20;;;;;;;7.90;4.70;;;11.20;99.90;;;;;;5048783;28;20100;-67
2022/04/04 08:27:46;;;;;;;9.77;4.20;;;11.10;99.90;;;;;;5044185;28;20388;-66
2022/04/04 08:30:20;;;;;;;10.00;4.68;;;11.10;99.90;;;;;;5048156;28;20479;-67
2022/04/04 08:32:46;;;;;;;7.25;4.13;;;11.20;99.90;;;;;;5044828;28;20056;-67
2022/04/04 08:35:13;;;;;;;6.75;4.38;;;11.30;99.90;;;;;;5053220;28;20025;-69
2022/04/04 08:37:41;;;;;;;6.55;3.67;;;11.40;99.90;;;;;;5045431;28;20532;-66
2022/04/04 08:40:09;;;;;;;7.95;3.95;;;11.50;99.90;;;;;;5047959;28;20025;-68
2022/04/04 08:42:36;;;;;;;7.72;4.68;;;11.60;99.90;;;;;;5044763;28;20032;-70
2022/04/04 08:45:04;;;;;;;6.43;3.75;;;11.60;99.90;;;;;;5044749;28;20032;-66
2022/04/04 08:47:31;;;;;;;6.90;5.20;;;11.70;99.90;;;;;;5042083;28;20434;-68
2022/04/04 08:49:57;;;;;;;6.28;3.92;;;11.70;99.90;;;;;;5052225;28;20062;-67
2022/04/04 08:52:24;;;;;;;7.57;4.03;;;11.80;99.90;;;;;;5045951;28;20159;-67
2022/04/04 08:54:50;;;;;;;8.00;4.53;;;11.80;99.90;;;;;;5049165;28;20021;-66
2022/04/04 08:57:17;;;;;;;10.35;4.22;;;11.70;99.90;;;;;;5047680;28;20025;-68
2022/04/04 08:59:44;;;;;;;3.83;3.35;;;11.80;99.90;;;;;;5047897;28;20029;-67
2022/04/04 09:02:11;;;;;;;7.70;3.97;;;11.90;99.90;;;;;;5047761;28;20025;-65
2022/04/04 09:04:38;;;;;;;6.50;4.65;;;11.80;99.90;;;;;;5044506;28;20021;-68
2022/04/04 09:07:09;;;;;;;6.38;3.80;;;11.60;99.90;;;;;;5044614;28;20040;-69
2022/04/04 09:09:45;;;;;;;6.85;3.95;;;11.70;99.90;;;;;;5047853;28;20059;-69
2022/04/04 09:12:13;;;;;;;9.57;4.25;;;11.70;99.90;;;;;;5047434;28;20029;-68
2022/04/04 09:14:52;;;;;;;10.30;3.75;;;11.80;99.90;;;;;;5043925;28;20496;-65
2022/04/04 09:17:24;;;;;;;6.63;4.20;;;11.80;99.90;;;;;;5048216;28;20107;-69
2022/04/04 09:19:50;;;;;;;4.13;3.72;;;11.90;99.90;;;;;;5041806;28;20477;-68
2022/04/04 09:22:19;;;;;;;8.60;3.50;;;11.90;99.90;;;;;;5044691;28;20033;-67
2022/04/04 09:24:55;;;;;;;5.22;3.72;;;11.90;99.90;;;;;;5042865;28;20025;-67
2022/04/04 09:27:36;;;;;;;5.30;4.20;;;12.00;99.90;;;;;;5039682;28;20415;-66
2022/04/04 09:30:19;;;;;;;9.45;3.88;;;12.40;99.90;;;;;;5040766;28;20024;-68
2022/04/04 09:32:46;;;;;;;5.72;3.42;;;12.70;99.90;;;;;;5038867;28;20033;-65
2022/04/04 09:35:18;;;;;;;13.20;5.22;;;12.80;99.90;;;;;;5042787;28;20036;-66
2022/04/04 09:37:46;;;;;;;3.85;3.42;;;12.80;99.90;;;;;;5042764;28;20036;-66
2022/04/04 09:40:15;;;;;;;6.68;3.78;;;12.70;99.90;;;;;;5037551;28;20033;-66
2022/04/04 09:42:42;;;;;;;7.82;3.50;;;12.60;99.90;;;;;;5043254;28;20156;-67
2022/04/04 09:45:13;;;;;;;8.63;5.10;;;12.70;99.90;;;;;;5045045;28;20021;-68
2022/04/04 09:47:46;;;;;;;8.27;3.88;;;12.60;99.90;;;;;;5043454;28;20055;-66
2022/04/04 09:50:44;;;;;;;3.90;3.40;;;12.60;99.90;;;;;;5042761;28;20021;-66
2022/04/04 09:53:15;;;;;;;8.32;4.45;;;12.60;99.90;;;;;;5041689;28;20032;-67
2022/04/04 09:55:55;;;;;;;7.53;3.47;;;12.60;99.90;;;;;;5041221;28;20116;-68
2022/04/04 09:58:23;;;;;;;4.88;4.18;;;12.50;99.90;;;;;;5039142;28;21373;-69
2022/04/04 10:00:49;;;;;;;8.70;4.05;;;12.40;99.90;;;;;;5038781;28;20033;-69
2022/04/04 10:03:16;;;;;;;6.28;3.53;;;12.40;99.90;;;;;;5043409;28;20496;-68
2022/04/04 10:06:07;;;;;;;7.22;3.65;;;12.30;99.90;;;;;;5046920;28;20045;-67
2022/04/04 10:08:36;;;;;;;4.90;3.65;;;12.40;99.90;;;;;;5048009;28;20021;-66
2022/04/04 10:11:03;;;;;;;5.80;3.50;;;12.40;99.90;;;;;;5046806;28;20017;-67
2022/04/04 10:13:30;;;;;;;7.65;4.40;;;12.20;99.90;;;;;;5044126;28;20059;-68
2022/04/04 10:15:56;;;;;;;7.05;3.85;;;12.10;99.90;;;;;;5047522;28;20059;-66
2022/04/04 10:18:21;;;;;;;4.20;3.63;;;12.10;99.90;;;;;;5046491;28;20032;-67
2022/04/04 10:20:54;;;;;;;4.57;3.92;;;12.10;99.90;;;;;;5045539;28;20036;-70
2022/04/04 10:23:24;;;;;;;4.00;3.60;;;12.10;99.90;;;;;;5046868;28;20104;-67
2022/04/04 10:25:51;;;;;;;10.05;4.07;;;12.10;99.90;;;;;;5046660;28;20030;-67
2022/04/04 10:28:43;;;;;;;4.53;3.70;;;12.10;99.90;;;;;;5046721;28;20112;-67
2022/04/04 10:31:18;;;;;;;5.63;3.75;;;12.00;99.90;;;;;;5044373;28;20089;-66
2022/04/04 10:33:44;;;;;;;4.97;3.90;;;11.70;99.90;;;;;;5046524;28;20458;-67
2022/04/04 10:36:16;;;;;;;10.48;6.15;;;11.60;99.90;;;;;;5043882;28;20029;-66
2022/04/04 10:38:49;;;;;;;6.82;4.00;;;11.60;99.90;;;;;;5043828;28;20517;-66
2022/04/04 10:41:18;;;;;;;5.50;3.38;;;11.80;99.90;;;;;;5042938;28;20033;-66
2022/04/04 10:43:49;;;;;;;5.93;3.47;;;11.70;99.90;;;;;;5042134;28;20104;-66
2022/04/04 10:46:19;;;;;;;8.20;4.40;;;11.70;99.90;;;;;;5044012;28;20021;-66
2022/04/04 10:49:04;;;;;;;11.15;4.28;;;11.90;99.90;;;;;;5041404;28;20041;-65
2022/04/04 10:51:31;;;;;;;5.85;4.25;;;11.80;99.90;;;;;;5040949;28;20052;-66
2022/04/04 10:54:05;;;;;;;7.13;3.83;;;11.80;99.90;;;;;;5040360;28;20087;-65
2022/04/04 10:56:33;;;;;;;12.30;3.95;;;11.70;99.90;;;;;;5040680;28;20063;-66
2022/04/04 10:59:18;;;;;;;6.05;3.80;;;11.70;99.90;;;;;;5041554;28;20395;-66
2022/04/04 11:01:49;;;;;;;8.15;4.57;;;11.70;99.90;;;;;;5035670;28;20033;-67
2022/04/04 11:04:31;;;;;;;4.18;3.88;;;11.70;99.90;;;;;;5041280;28;20025;-66
2022/04/04 11:09:56;;;;;;;5.22;4.07;;;11.80;99.90;;;;;;5044338;28;20131;-66
2022/04/04 11:12:28;;;;;;;7.07;4.15;;;11.70;99.90;;;;;;5039878;28;20025;-67
2022/04/04 11:15:07;;;;;;;6.20;4.35;;;11.70;99.90;;;;;;5030391;28;20083;-67
2022/04/04 11:17:35;;;;;;;7.57;4.55;;;11.70;99.90;;;;;;5040663;28;20442;-65
2022/04/04 11:20:36;;;;;;;6.40;4.15;;;11.80;99.90;;;;;;5049845;28;20036;-67
2022/04/04 11:23:11;;;;;;;7.05;4.18;;;11.80;99.90;;;;;;5041712;28;20486;-66
2022/04/04 11:25:48;;;;;;;5.47;4.95;;;11.80;99.90;;;;;;5041112;28;20276;-65
2022/04/04 11:28:17;;;;;;;11.70;4.78;;;11.80;99.90;;;;;;5041248;28;20529;-67
2022/04/04 11:30:43;;;;;;;7.13;5.60;;;11.90;99.90;;;;;;5044178;28;20030;-68
2022/04/04 11:33:17;;;;;;;10.40;5.00;;;11.90;99.90;;;;;;5044114;28;20028;-66
2022/04/04 11:35:46;;;;;;;6.63;5.95;;;11.90;99.90;;;;;;5045830;28;20056;-66
2022/04/04 11:38:12;;;;;;;8.80;5.75;;;12.00;99.90;;;;;;5037417;28;20018;-66
2022/04/04 11:40:39;;;;;;;7.47;6.32;;;11.90;99.90;;;;;;5039167;28;20035;-65
2022/04/04 11:43:13;;;;;;;13.32;5.20;;;11.80;99.90;;;;;;5045702;28;20024;-64
2022/04/04 11:45:42;;;;;;;13.25;4.97;;;11.80;99.90;;;;;;5042915;28;20055;-68
2022/04/04 11:48:17;;;;;;;6.80;4.15;;;11.80;99.90;;;;;;5038563;28;20024;-66
2022/04/04 11:50:44;;;;;;;13.43;4.40;;;11.80;99.90;;;;;;5040829;28;20071;-65
2022/04/04 11:53:15;;;;;;;8.45;4.57;;;11.90;99.90;;;;;;5044416;28;20032;-66
2022/04/04 11:55:44;;;;;;;9.70;4.97;;;12.00;99.90;;;;;;5039108;28;20029;-66
2022/04/04 11:58:13;;;;;;;4.97;4.50;;;12.10;99.90;;;;;;5040066;28;20025;-66
2022/04/04 12:00:42;;;;;;;6.40;3.85;;;12.10;99.90;;;;;;5041158;28;20029;-65
2022/04/04 12:03:10;;;;;;;8.07;4.57;;;12.10;99.90;;;;;;5041737;28;20025;-65
2022/04/04 12:05:44;;;;;;;8.30;5.60;;;12.00;99.90;;;;;;5038827;28;20583;-65
2022/04/04 12:08:12;;;;;;;5.88;3.95;;;12.30;99.90;;;;;;5042465;28;20435;-64
2022/04/04 12:10:39;;;;;;;7.85;4.13;;;12.20;99.90;;;;;;5038185;28;20036;-65
2022/04/04 12:13:08;;;;;;;7.97;4.93;;;12.30;99.90;;;;;;5040178;28;20475;-65
2022/04/04 12:15:39;;;;;;;6.35;5.05;;;12.40;99.90;;;;;;5048184;28;20055;-65
2022/04/04 12:18:06;;;;;;;6.25;4.47;;;12.30;99.90;;;;;;5041616;28;20119;-65
2022/04/04 12:20:37;;;;;;;7.88;4.10;;;12.10;99.90;;;;;;5043071;28;20266;-65
2022/04/04 12:25:50;;;;;;;7.07;4.95;;;11.90;99.90;;;;;;5043945;28;20317;-65
2022/04/04 12:28:24;;;;;;;8.93;4.57;;;11.80;99.90;;;;;;5042689;28;20387;-66
2022/04/04 12:30:49;;;;;;;5.55;4.40;;;11.80;99.90;;;;;;5045712;28;20029;-65
2022/04/04 12:33:15;;;;;;;6.57;4.75;;;12.00;99.90;;;;;;5045910;28;20042;-65
2022/04/04 12:35:47;;;;;;;5.43;3.60;;;11.90;99.90;;;;;;5025750;28;20021;-66
2022/04/04 12:38:42;;;;;;;5.95;4.28;;;11.90;99.90;;;;;;5051072;28;20032;-65
2022/04/04 12:41:10;;;;;;;12.80;4.50;;;11.90;99.90;;;;;;5037903;28;20025;-66
2022/04/04 12:43:39;;;;;;;8.07;3.67;;;11.70;99.90;;;;;;5044030;28;20491;-65
2022/04/04 12:46:09;;;;;;;8.00;4.18;;;11.70;99.90;;;;;;5044645;28;20072;-67
2022/04/04 12:48:40;;;;;;;10.43;4.10;;;11.80;99.90;;;;;;5044098;28;20060;-65
2022/04/04 12:51:07;;;;;;;5.22;4.82;;;12.00;99.90;;;;;;5047365;28;20032;-66
2022/04/04 12:53:50;;;;;;;8.90;4.72;;;11.90;99.90;;;;;;5044688;28;20083;-65
2022/04/04 12:56:16;;;;;;;8.50;4.78;;;11.90;99.90;;;;;;5049199;28;20021;-66
2022/04/04 12:58:42;;;;;;;7.03;4.75;;;12.00;99.90;;;;;;5048614;28;20431;-66
2022/04/04 13:01:13;;;;;;;5.18;4.40;;;12.20;99.90;;;;;;5044295;28;20087;-65
2022/04/04 13:03:48;;;;;;;9.38;4.60;;;12.40;99.90;;;;;;5038992;28;20026;-65
2022/04/04 13:06:16;;;;;;;9.55;3.92;;;12.60;99.90;;;;;;5046844;28;20017;-65